sensor_id;sensor_type;location;lat;lon;timestamp;pressure;altitude;pressure_sealevel;temperature;humidity
34297;BME280;20564;42.902;25.336;2022-08-05T00:00:19;97256.84;;;18.63;76.30
34297;BME280;20564;42.902;25.336;2022-08-05T00:02:55;97247.28;;;18.53;76.77
34297;BME280;20564;42.902;25.336;2022-08-05T00:05:23;97246.47;;;18.53;76.56
34297;BME280;20564;42.902;25.336;2022-08-05T00:08:10;97249.91;;;18.47;76.71
34297;BME280;20564;42.902;25.336;2022-08-05T00:10:58;97246.81;;;18.43;77.49
34297;BME280;20564;42.902;25.336;2022-08-05T00:13:31;97245.69;;;18.38;77.40
34297;BME280;20564;42.902;25.336;2022-08-05T00:16:06;97243.25;;;18.36;77.55
34297;BME280;20564;42.902;25.336;2022-08-05T00:18:37;97249.97;;;18.32;77.69
34297;BME280;20564;42.902;25.336;2022-08-05T00:21:05;97249.50;;;18.28;77.95
34297;BME280;20564;42.902;25.336;2022-08-05T00:23:35;97249.06;;;18.25;77.70
34297;BME280;20564;42.902;25.336;2022-08-05T00:26:19;97250.06;;;18.09;79.29
34297;BME280;20564;42.902;25.336;2022-08-05T00:28:48;97248.34;;;18.01;79.10
34297;BME280;20564;42.902;25.336;2022-08-05T00:31:15;97243.47;;;18.05;79.64
34297;BME280;20564;42.902;25.336;2022-08-05T00:34:02;97240.34;;;18.01;78.80
34297;BME280;20564;42.902;25.336;2022-08-05T00:36:51;97244.19;;;17.99;79.67
34297;BME280;20564;42.902;25.336;2022-08-05T00:39:38;97249.09;;;17.95;79.54
34297;BME280;20564;42.902;25.336;2022-08-05T00:42:31;97247.78;;;17.91;80.00
34297;BME280;20564;42.902;25.336;2022-08-05T00:44:59;97255.63;;;17.93;79.83
34297;BME280;20564;42.902;25.336;2022-08-05T00:47:26;97254.78;;;17.92;80.03
34297;BME280;20564;42.902;25.336;2022-08-05T00:50:13;97257.53;;;17.84;80.04
34297;BME280;20564;42.902;25.336;2022-08-05T00:52:40;97252.31;;;17.76;80.93
34297;BME280;20564;42.902;25.336;2022-08-05T00:55:12;97254.97;;;17.76;80.68
34297;BME280;20564;42.902;25.336;2022-08-05T00:57:40;97251.00;;;17.72;80.88
34297;BME280;20564;42.902;25.336;2022-08-05T01:00:25;97249.06;;;17.66;80.60
34297;BME280;20564;42.902;25.336;2022-08-05T01:02:53;97251.19;;;17.70;80.74
34297;BME280;20564;42.902;25.336;2022-08-05T01:05:22;97236.97;;;17.63;80.79
34297;BME280;20564;42.902;25.336;2022-08-05T01:07:50;97256.50;;;17.70;81.04
34297;BME280;20564;42.902;25.336;2022-08-05T01:11:18;97254.22;;;17.67;81.17
34297;BME280;20564;42.902;25.336;2022-08-05T01:17:10;97252.16;;;17.54;82.44
34297;BME280;20564;42.902;25.336;2022-08-05T01:19:44;97255.50;;;17.56;81.64
34297;BME280;20564;42.902;25.336;2022-08-05T01:23:00;97250.88;;;17.50;81.84
34297;BME280;20564;42.902;25.336;2022-08-05T01:26:13;97246.59;;;17.49;81.58
34297;BME280;20564;42.902;25.336;2022-08-05T01:28:59;97247.59;;;17.48;81.48
34297;BME280;20564;42.902;25.336;2022-08-05T01:36:57;97245.09;;;17.47;81.47
34297;BME280;20564;42.902;25.336;2022-08-05T01:39:26;97245.00;;;17.40;82.25
34297;BME280;20564;42.902;25.336;2022-08-05T01:42:16;97248.31;;;17.42;82.53
34297;BME280;20564;42.902;25.336;2022-08-05T01:44:46;97244.00;;;17.41;81.98
34297;BME280;20564;42.902;25.336;2022-08-05T01:47:20;97247.84;;;17.39;82.38
34297;BME280;20564;42.902;25.336;2022-08-05T01:49:51;97251.16;;;17.41;82.14
34297;BME280;20564;42.902;25.336;2022-08-05T01:52:30;97248.03;;;17.37;82.45
34297;BME280;20564;42.902;25.336;2022-08-05T01:55:02;97240.69;;;17.39;82.55
34297;BME280;20564;42.902;25.336;2022-08-05T01:57:35;97241.88;;;17.36;82.25
34297;BME280;20564;42.902;25.336;2022-08-05T02:00:24;97244.06;;;17.33;82.35
34297;BME280;20564;42.902;25.336;2022-08-05T02:03:03;97243.53;;;17.23;82.37
34297;BME280;20564;42.902;25.336;2022-08-05T02:05:52;97243.53;;;17.23;82.98
34297;BME280;20564;42.902;25.336;2022-08-05T02:08:26;97242.31;;;17.25;83.01
34297;BME280;20564;42.902;25.336;2022-08-05T02:11:16;97237.38;;;17.22;82.99
34297;BME280;20564;42.902;25.336;2022-08-05T02:14:10;97245.53;;;17.21;82.95
34297;BME280;20564;42.902;25.336;2022-08-05T02:16:45;97239.94;;;17.16;83.35
34297;BME280;20564;42.902;25.336;2022-08-05T02:22:20;97237.88;;;17.03;84.34
34297;BME280;20564;42.902;25.336;2022-08-05T02:24:59;97242.38;;;17.02;83.61
34297;BME280;20564;42.902;25.336;2022-08-05T02:27:29;97237.06;;;17.02;84.13
34297;BME280;20564;42.902;25.336;2022-08-05T02:30:19;97233.38;;;17.03;83.71
34297;BME280;20564;42.902;25.336;2022-08-05T02:32:50;97224.31;;;16.98;84.23
34297;BME280;20564;42.902;25.336;2022-08-05T02:35:22;97229.16;;;16.94;83.96
34297;BME280;20564;42.902;25.336;2022-08-05T02:37:59;97230.44;;;16.98;84.76
34297;BME280;20564;42.902;25.336;2022-08-05T02:40:28;97221.81;;;16.96;83.96
34297;BME280;20564;42.902;25.336;2022-08-05T02:42:57;97236.59;;;16.99;83.92
34297;BME280;20564;42.902;25.336;2022-08-05T02:45:26;97232.81;;;16.93;85.09
34297;BME280;20564;42.902;25.336;2022-08-05T02:48:15;97226.09;;;16.82;84.93
34297;BME280;20564;42.902;25.336;2022-08-05T02:50:43;97233.88;;;16.84;85.14
34297;BME280;20564;42.902;25.336;2022-08-05T02:53:15;97230.94;;;16.79;85.57
34297;BME280;20564;42.902;25.336;2022-08-05T02:55:49;97237.72;;;16.81;86.22
34297;BME280;20564;42.902;25.336;2022-08-05T02:58:26;97234.97;;;16.75;86.00
34297;BME280;20564;42.902;25.336;2022-08-05T03:00:58;97233.59;;;16.71;85.60
34297;BME280;20564;42.902;25.336;2022-08-05T03:03:27;97232.31;;;16.67;85.91
34297;BME280;20564;42.902;25.336;2022-08-05T03:06:16;97233.19;;;16.59;86.50
34297;BME280;20564;42.902;25.336;2022-08-05T03:09:04;97232.38;;;16.58;86.60
34297;BME280;20564;42.902;25.336;2022-08-05T03:11:33;97230.66;;;16.66;86.05
34297;BME280;20564;42.902;25.336;2022-08-05T03:14:20;97235.97;;;16.66;86.00
34297;BME280;20564;42.902;25.336;2022-08-05T03:16:47;97229.03;;;16.64;85.67
34297;BME280;20564;42.902;25.336;2022-08-05T03:19:18;97244.63;;;16.68;86.05
34297;BME280;20564;42.902;25.336;2022-08-05T03:22:02;97239.94;;;16.70;86.05
34297;BME280;20564;42.902;25.336;2022-08-05T03:24:42;97244.97;;;16.64;85.99
34297;BME280;20564;42.902;25.336;2022-08-05T03:27:17;97247.78;;;16.63;86.18
34297;BME280;20564;42.902;25.336;2022-08-05T03:29:44;97244.03;;;16.57;85.35
34297;BME280;20564;42.902;25.336;2022-08-05T03:32:31;97247.31;;;16.59;86.27
34297;BME280;20564;42.902;25.336;2022-08-05T03:34:59;97236.22;;;16.56;86.25
34297;BME280;20564;42.902;25.336;2022-08-05T03:37:26;97245.66;;;16.58;85.73
34297;BME280;20564;42.902;25.336;2022-08-05T03:39:55;97244.31;;;16.62;86.18
34297;BME280;20564;42.902;25.336;2022-08-05T03:42:26;97244.31;;;16.62;86.01
34297;BME280;20564;42.902;25.336;2022-08-05T03:44:57;97246.63;;;16.66;85.94
34297;BME280;20564;42.902;25.336;2022-08-05T03:47:27;97238.94;;;16.71;85.88
34297;BME280;20564;42.902;25.336;2022-08-05T03:50:01;97242.59;;;16.70;85.90
34297;BME280;20564;42.902;25.336;2022-08-05T03:52:31;97245.91;;;16.72;86.28
34297;BME280;20564;42.902;25.336;2022-08-05T03:55:34;97240.94;;;16.69;87.01
34297;BME280;20564;42.902;25.336;2022-08-05T03:58:27;97242.09;;;16.74;86.50
34297;BME280;20564;42.902;25.336;2022-08-05T04:00:58;97239.44;;;16.74;86.92
34297;BME280;20564;42.902;25.336;2022-08-05T04:03:30;97248.88;;;16.77;86.10
34297;BME280;20564;42.902;25.336;2022-08-05T04:06:04;97254.13;;;16.85;86.76
34297;BME280;20564;42.902;25.336;2022-08-05T04:08:34;97259.41;;;16.93;86.13
34297;BME280;20564;42.902;25.336;2022-08-05T04:11:12;97253.63;;;16.90;86.41
34297;BME280;20564;42.902;25.336;2022-08-05T04:13:41;97258.31;;;17.02;86.66
34297;BME280;20564;42.902;25.336;2022-08-05T04:16:19;97249.81;;;17.07;85.93
34297;BME280;20564;42.902;25.336;2022-08-05T04:18:51;97249.38;;;17.18;86.43
34297;BME280;20564;42.902;25.336;2022-08-05T04:21:20;97252.50;;;17.22;86.49
34297;BME280;20564;42.902;25.336;2022-08-05T04:24:07;97250.13;;;17.27;85.62
34297;BME280;20564;42.902;25.336;2022-08-05T04:26:45;97249.34;;;17.41;85.36
34297;BME280;20564;42.902;25.336;2022-08-05T04:29:12;97251.72;;;17.66;85.27
34297;BME280;20564;42.902;25.336;2022-08-05T04:31:39;97254.88;;;17.84;84.03
34297;BME280;20564;42.902;25.336;2022-08-05T04:34:08;97243.56;;;18.12;82.76
34297;BME280;20564;42.902;25.336;2022-08-05T04:36:55;97251.22;;;18.36;82.75
34297;BME280;20564;42.902;25.336;2022-08-05T04:39:23;97253.28;;;18.55;82.00
34297;BME280;20564;42.902;25.336;2022-08-05T04:41:53;97246.81;;;18.79;81.67
34297;BME280;20564;42.902;25.336;2022-08-05T04:44:20;97247.03;;;19.06;79.93
34297;BME280;20564;42.902;25.336;2022-08-05T04:46:59;97251.16;;;19.37;79.51
34297;BME280;20564;42.902;25.336;2022-08-05T04:49:39;97252.66;;;19.67;78.18
34297;BME280;20564;42.902;25.336;2022-08-05T04:52:26;97241.50;;;19.98;76.59
34297;BME280;20564;42.902;25.336;2022-08-05T04:54:54;97242.84;;;20.29;76.44
34297;BME280;20564;42.902;25.336;2022-08-05T04:57:23;97235.16;;;20.54;76.74
34297;BME280;20564;42.902;25.336;2022-08-05T04:59:55;97222.84;;;20.80;75.63
34297;BME280;20564;42.902;25.336;2022-08-05T05:02:24;97232.13;;;21.17;73.15
34297;BME280;20564;42.902;25.336;2022-08-05T05:05:08;97222.03;;;21.46;70.70
34297;BME280;20564;42.902;25.336;2022-08-05T05:07:55;97228.59;;;21.76;68.41
34297;BME280;20564;42.902;25.336;2022-08-05T05:10:31;97221.50;;;22.02;66.67
34297;BME280;20564;42.902;25.336;2022-08-05T05:12:59;97222.25;;;22.29;65.82
34297;BME280;20564;42.902;25.336;2022-08-05T05:15:30;97221.28;;;22.55;65.05
34297;BME280;20564;42.902;25.336;2022-08-05T05:18:17;97215.25;;;22.91;62.97
34297;BME280;20564;42.902;25.336;2022-08-05T05:21:00;97212.72;;;23.28;63.71
34297;BME280;20564;42.902;25.336;2022-08-05T05:23:28;97210.28;;;23.45;62.27
34297;BME280;20564;42.902;25.336;2022-08-05T05:26:17;97207.38;;;23.71;61.67
34297;BME280;20564;42.902;25.336;2022-08-05T05:28:44;97211.03;;;23.95;59.36
34297;BME280;20564;42.902;25.336;2022-08-05T05:31:12;97212.72;;;24.26;58.44
34297;BME280;20564;42.902;25.336;2022-08-05T05:33:39;97206.53;;;24.56;58.36
34297;BME280;20564;42.902;25.336;2022-08-05T05:36:26;97197.25;;;24.82;55.61
34297;BME280;20564;42.902;25.336;2022-08-05T05:38:55;97203.06;;;25.09;55.07
34297;BME280;20564;42.902;25.336;2022-08-05T05:41:23;97200.19;;;25.34;52.77
34297;BME280;20564;42.902;25.336;2022-08-05T05:43:50;97203.66;;;25.58;52.62
34297;BME280;20564;42.902;25.336;2022-08-05T05:46:24;97203.53;;;25.77;51.22
34297;BME280;20564;42.902;25.336;2022-08-05T05:48:51;97207.06;;;26.01;51.98
34297;BME280;20564;42.902;25.336;2022-08-05T05:51:22;97208.59;;;26.25;51.11
34297;BME280;20564;42.902;25.336;2022-08-05T05:53:51;97202.69;;;26.52;50.20
34297;BME280;20564;42.902;25.336;2022-08-05T05:56:30;97200.19;;;26.79;48.66
34297;BME280;20564;42.902;25.336;2022-08-05T05:59:04;97199.41;;;26.95;48.41
34297;BME280;20564;42.902;25.336;2022-08-05T06:01:35;97199.66;;;27.10;48.43
34297;BME280;20564;42.902;25.336;2022-08-05T06:04:12;97197.38;;;27.36;44.78
34297;BME280;20564;42.902;25.336;2022-08-05T06:06:42;97200.94;;;27.58;44.38
34297;BME280;20564;42.902;25.336;2022-08-05T06:09:14;97205.75;;;27.90;44.03
34297;BME280;20564;42.902;25.336;2022-08-05T06:11:50;97194.09;;;28.11;43.74
34297;BME280;20564;42.902;25.336;2022-08-05T06:14:31;97187.34;;;28.36;42.70
34297;BME280;20564;42.902;25.336;2022-08-05T06:17:00;97189.06;;;28.42;42.85
34297;BME280;20564;42.902;25.336;2022-08-05T06:19:48;97188.41;;;28.57;42.79
34297;BME280;20564;42.902;25.336;2022-08-05T06:22:26;97183.22;;;28.55;42.14
34297;BME280;20564;42.902;25.336;2022-08-05T06:24:54;97191.56;;;28.76;41.21
34297;BME280;20564;42.902;25.336;2022-08-05T06:27:22;97188.75;;;28.93;41.84
34297;BME280;20564;42.902;25.336;2022-08-05T06:30:09;97179.41;;;29.11;42.39
34297;BME280;20564;42.902;25.336;2022-08-05T06:32:45;97186.38;;;29.34;41.73
34297;BME280;20564;42.902;25.336;2022-08-05T06:35:12;97188.91;;;29.45;42.31
34297;BME280;20564;42.902;25.336;2022-08-05T06:37:59;97176.03;;;29.63;40.56
34297;BME280;20564;42.902;25.336;2022-08-05T06:40:36;97177.78;;;29.84;41.53
34297;BME280;20564;42.902;25.336;2022-08-05T06:43:09;97180.88;;;30.13;42.92
34297;BME280;20564;42.902;25.336;2022-08-05T06:45:56;97187.25;;;30.44;39.39
34297;BME280;20564;42.902;25.336;2022-08-05T06:48:33;97187.50;;;30.43;40.08
34297;BME280;20564;42.902;25.336;2022-08-05T06:51:21;97176.44;;;30.65;40.07
34297;BME280;20564;42.902;25.336;2022-08-05T06:54:01;97172.38;;;31.03;39.59
34297;BME280;20564;42.902;25.336;2022-08-05T06:56:30;97188.97;;;31.22;38.81
34297;BME280;20564;42.902;25.336;2022-08-05T06:59:02;97187.31;;;31.26;38.87
34297;BME280;20564;42.902;25.336;2022-08-05T07:01:34;97185.19;;;31.23;38.74
34297;BME280;20564;42.902;25.336;2022-08-05T07:04:02;97191.72;;;31.37;38.73
34297;BME280;20564;42.902;25.336;2022-08-05T07:06:29;97191.16;;;31.35;37.97
34297;BME280;20564;42.902;25.336;2022-08-05T07:08:58;97185.72;;;31.25;37.91
34297;BME280;20564;42.902;25.336;2022-08-05T07:11:30;97181.09;;;30.95;38.46
34297;BME280;20564;42.902;25.336;2022-08-05T07:14:03;97190.59;;;30.77;38.13
34297;BME280;20564;42.902;25.336;2022-08-05T07:16:59;97192.78;;;30.95;39.14
34297;BME280;20564;42.902;25.336;2022-08-05T07:19:47;97189.25;;;31.20;38.48
34297;BME280;20564;42.902;25.336;2022-08-05T07:22:36;97194.69;;;31.36;37.89
34297;BME280;20564;42.902;25.336;2022-08-05T07:25:04;97185.13;;;31.59;38.17
34297;BME280;20564;42.902;25.336;2022-08-05T07:27:53;97192.75;;;31.52;36.70
34297;BME280;20564;42.902;25.336;2022-08-05T07:30:31;97189.81;;;31.38;37.91
34297;BME280;20564;42.902;25.336;2022-08-05T07:33:02;97195.19;;;31.68;37.95
34297;BME280;20564;42.902;25.336;2022-08-05T07:35:38;97194.34;;;31.88;37.05
34297;BME280;20564;42.902;25.336;2022-08-05T07:38:26;97196.50;;;31.91;35.64
34297;BME280;20564;42.902;25.336;2022-08-05T07:41:09;97193.84;;;31.71;34.48
34297;BME280;20564;42.902;25.336;2022-08-05T07:43:57;97196.50;;;31.91;35.37
34297;BME280;20564;42.902;25.336;2022-08-05T07:46:25;97191.91;;;31.87;36.18
34297;BME280;20564;42.902;25.336;2022-08-05T07:48:54;97189.94;;;32.08;35.22
34297;BME280;20564;42.902;25.336;2022-08-05T07:51:31;97186.03;;;32.29;34.72
34297;BME280;20564;42.902;25.336;2022-08-05T07:54:04;97190.88;;;32.37;34.04
34297;BME280;20564;42.902;25.336;2022-08-05T07:56:34;97188.16;;;32.37;34.60
34297;BME280;20564;42.902;25.336;2022-08-05T07:59:22;97200.00;;;32.67;34.45
34297;BME280;20564;42.902;25.336;2022-08-05T08:02:09;97189.00;;;32.82;33.22
34297;BME280;20564;42.902;25.336;2022-08-05T08:04:44;97187.53;;;32.56;32.74
34297;BME280;20564;42.902;25.336;2022-08-05T08:07:12;97187.94;;;32.78;32.69
34297;BME280;20564;42.902;25.336;2022-08-05T08:09:40;97195.53;;;32.81;33.69
34297;BME280;20564;42.902;25.336;2022-08-05T08:12:07;97185.38;;;32.92;32.83
34297;BME280;20564;42.902;25.336;2022-08-05T08:14:54;97192.66;;;33.07;32.44
34297;BME280;20564;42.902;25.336;2022-08-05T08:17:22;97191.88;;;33.35;33.48
34297;BME280;20564;42.902;25.336;2022-08-05T08:19:53;97185.97;;;33.23;32.89
34297;BME280;20564;42.902;25.336;2022-08-05T08:22:40;97182.16;;;33.24;31.62
34297;BME280;20564;42.902;25.336;2022-08-05T08:25:08;97176.00;;;33.37;31.68
34297;BME280;20564;42.902;25.336;2022-08-05T08:27:42;97182.59;;;33.66;33.07
34297;BME280;20564;42.902;25.336;2022-08-05T08:30:17;97180.25;;;33.54;31.10
34297;BME280;20564;42.902;25.336;2022-08-05T08:33:08;97178.63;;;33.53;31.48
34297;BME280;20564;42.902;25.336;2022-08-05T08:35:40;97179.28;;;33.40;31.05
34297;BME280;20564;42.902;25.336;2022-08-05T08:38:27;97171.72;;;33.31;32.23
34297;BME280;20564;42.902;25.336;2022-08-05T08:41:04;97172.28;;;33.28;31.52
34297;BME280;20564;42.902;25.336;2022-08-05T08:43:35;97167.97;;;33.22;30.79
34297;BME280;20564;42.902;25.336;2022-08-05T08:46:25;97166.59;;;33.25;31.72
34297;BME280;20564;42.902;25.336;2022-08-05T08:48:53;97162.19;;;33.29;32.51
34297;BME280;20564;42.902;25.336;2022-08-05T08:51:50;97164.59;;;33.35;31.92
34297;BME280;20564;42.902;25.336;2022-08-05T08:54:32;97171.59;;;33.42;31.95
34297;BME280;20564;42.902;25.336;2022-08-05T08:57:04;97167.50;;;33.73;31.07
34297;BME280;20564;42.902;25.336;2022-08-05T08:59:37;97159.69;;;33.85;30.87
34297;BME280;20564;42.902;25.336;2022-08-05T09:02:12;97146.50;;;33.93;30.56
34297;BME280;20564;42.902;25.336;2022-08-05T09:04:43;97152.03;;;34.12;31.23
34297;BME280;20564;42.902;25.336;2022-08-05T09:07:31;97153.66;;;34.13;29.65
34297;BME280;20564;42.902;25.336;2022-08-05T09:10:20;97143.47;;;34.18;29.30
34297;BME280;20564;42.902;25.336;2022-08-05T09:12:54;97150.06;;;34.36;30.43
34297;BME280;20564;42.902;25.336;2022-08-05T09:15:21;97132.28;;;34.39;29.31
34297;BME280;20564;42.902;25.336;2022-08-05T09:17:50;97151.97;;;34.36;29.80
34297;BME280;20564;42.902;25.336;2022-08-05T09:20:18;97127.03;;;34.61;31.42
34297;BME280;20564;42.902;25.336;2022-08-05T09:23:17;97137.03;;;34.85;29.38
34297;BME280;20564;42.902;25.336;2022-08-05T09:25:52;97129.25;;;34.78;29.00
34297;BME280;20564;42.902;25.336;2022-08-05T09:28:38;97138.28;;;34.60;29.52
34297;BME280;20564;42.902;25.336;2022-08-05T09:31:11;97130.97;;;34.74;29.98
34297;BME280;20564;42.902;25.336;2022-08-05T09:34:05;97135.72;;;33.82;29.61
34297;BME280;20564;42.902;25.336;2022-08-05T09:36:45;97130.50;;;33.62;30.22
34297;BME280;20564;42.902;25.336;2022-08-05T09:39:21;97132.06;;;33.68;30.05
34297;BME280;20564;42.902;25.336;2022-08-05T09:42:10;97118.22;;;33.83;31.38
34297;BME280;20564;42.902;25.336;2022-08-05T09:44:52;97131.63;;;33.27;30.94
34297;BME280;20564;42.902;25.336;2022-08-05T09:47:25;97132.97;;;32.66;31.55
34297;BME280;20564;42.902;25.336;2022-08-05T09:50:12;97132.53;;;31.94;32.07
34297;BME280;20564;42.902;25.336;2022-08-05T09:53:00;97126.97;;;32.20;32.72
34297;BME280;20564;42.902;25.336;2022-08-05T09:55:34;97127.69;;;32.35;32.37
34297;BME280;20564;42.902;25.336;2022-08-05T09:58:22;97122.56;;;32.68;32.48
34297;BME280;20564;42.902;25.336;2022-08-05T10:01:03;97122.47;;;33.18;31.38
34297;BME280;20564;42.902;25.336;2022-08-05T10:03:57;97117.41;;;33.83;31.50
34297;BME280;20564;42.902;25.336;2022-08-05T10:06:26;97101.41;;;34.19;29.86
34297;BME280;20564;42.902;25.336;2022-08-05T10:09:17;97114.97;;;33.81;31.50
34297;BME280;20564;42.902;25.336;2022-08-05T10:12:05;97114.84;;;33.44;31.53
34297;BME280;20564;42.902;25.336;2022-08-05T10:15:12;97118.63;;;33.19;30.75
34297;BME280;20564;42.902;25.336;2022-08-05T10:17:43;97114.56;;;32.82;31.81
34297;BME280;20564;42.902;25.336;2022-08-05T10:20:23;97103.31;;;32.54;31.78
34297;BME280;20564;42.902;25.336;2022-08-05T10:22:51;97103.91;;;32.51;31.86
34297;BME280;20564;42.902;25.336;2022-08-05T10:25:18;97098.69;;;32.89;31.94
34297;BME280;20564;42.902;25.336;2022-08-05T10:27:45;97103.22;;;33.33;30.82
34297;BME280;20564;42.902;25.336;2022-08-05T10:30:34;97101.38;;;33.52;30.27
34297;BME280;20564;42.902;25.336;2022-08-05T10:33:24;97095.66;;;33.54;28.43
34297;BME280;20564;42.902;25.336;2022-08-05T10:35:55;97095.69;;;33.49;29.57
34297;BME280;20564;42.902;25.336;2022-08-05T10:38:27;97085.72;;;33.63;28.53
34297;BME280;20564;42.902;25.336;2022-08-05T10:41:16;97076.88;;;34.14;29.42
34297;BME280;20564;42.902;25.336;2022-08-05T10:46:45;97073.09;;;34.48;27.94
34297;BME280;20564;42.902;25.336;2022-08-05T10:49:20;97079.44;;;34.62;28.23
34297;BME280;20564;42.902;25.336;2022-08-05T10:51:58;97074.19;;;34.66;27.14
34297;BME280;20564;42.902;25.336;2022-08-05T10:54:47;97069.81;;;34.84;26.41
34297;BME280;20564;42.902;25.336;2022-08-05T10:57:26;97062.88;;;35.05;26.17
34297;BME280;20564;42.902;25.336;2022-08-05T11:03:07;97069.94;;;35.66;26.24
34297;BME280;20564;42.902;25.336;2022-08-05T11:06:11;97080.47;;;34.66;27.29
34297;BME280;20564;42.902;25.336;2022-08-05T11:11:43;97065.22;;;34.27;28.86
34297;BME280;20564;42.902;25.336;2022-08-05T11:14:26;97057.47;;;34.53;28.60
34297;BME280;20564;42.902;25.336;2022-08-05T11:20:36;97053.78;;;34.77;27.71
34297;BME280;20564;42.902;25.336;2022-08-05T11:23:27;97054.16;;;35.03;26.26
34297;BME280;20564;42.902;25.336;2022-08-05T11:28:55;97054.63;;;34.77;26.65
34297;BME280;20564;42.902;25.336;2022-08-05T11:31:23;97032.06;;;34.99;26.66
34297;BME280;20564;42.902;25.336;2022-08-05T11:34:13;97031.94;;;35.51;27.05
34297;BME280;20564;42.902;25.336;2022-08-05T11:36:49;97030.09;;;35.33;26.55
34297;BME280;20564;42.902;25.336;2022-08-05T11:39:47;97029.06;;;35.28;25.72
34297;BME280;20564;42.902;25.336;2022-08-05T11:42:33;97032.00;;;34.72;26.10
34297;BME280;20564;42.902;25.336;2022-08-05T11:45:06;97042.38;;;34.18;26.76
34297;BME280;20564;42.902;25.336;2022-08-05T11:47:52;97042.50;;;33.46;29.01
34297;BME280;20564;42.902;25.336;2022-08-05T11:50:20;97039.63;;;33.08;29.16
34297;BME280;20564;42.902;25.336;2022-08-05T11:52:47;97029.13;;;32.97;29.94
34297;BME280;20564;42.902;25.336;2022-08-05T11:55:20;97035.31;;;33.31;29.28
34297;BME280;20564;42.902;25.336;2022-08-05T11:57:57;97028.91;;;33.65;29.56
34297;BME280;20564;42.902;25.336;2022-08-05T12:00:37;97025.47;;;33.97;29.62
34297;BME280;20564;42.902;25.336;2022-08-05T12:03:19;97017.66;;;34.28;28.64
34297;BME280;20564;42.902;25.336;2022-08-05T12:06:00;97011.25;;;34.00;29.01
34297;BME280;20564;42.902;25.336;2022-08-05T12:08:27;97013.56;;;33.69;29.22
34297;BME280;20564;42.902;25.336;2022-08-05T12:10:59;97023.59;;;33.93;29.17
34297;BME280;20564;42.902;25.336;2022-08-05T12:13:31;97014.84;;;33.96;28.88
34297;BME280;20564;42.902;25.336;2022-08-05T12:16:17;97009.72;;;33.89;28.93
34297;BME280;20564;42.902;25.336;2022-08-05T12:18:45;97005.38;;;33.88;28.28
34297;BME280;20564;42.902;25.336;2022-08-05T12:21:25;97014.69;;;33.87;29.01
34297;BME280;20564;42.902;25.336;2022-08-05T12:24:07;97017.47;;;33.82;28.24
34297;BME280;20564;42.902;25.336;2022-08-05T12:26:39;97011.41;;;33.66;28.91
34297;BME280;20564;42.902;25.336;2022-08-05T12:29:16;97015.13;;;33.27;30.01
34297;BME280;20564;42.902;25.336;2022-08-05T12:31:53;97019.44;;;33.33;30.71
34297;BME280;20564;42.902;25.336;2022-08-05T12:34:40;97011.41;;;33.66;30.42
34297;BME280;20564;42.902;25.336;2022-08-05T12:37:09;97008.88;;;33.94;29.31
34297;BME280;20564;42.902;25.336;2022-08-05T12:39:56;96998.16;;;34.35;28.53
34297;BME280;20564;42.902;25.336;2022-08-05T12:42:29;96994.03;;;34.70;28.64
34297;BME280;20564;42.902;25.336;2022-08-05T12:45:03;96990.66;;;34.73;27.84
34297;BME280;20564;42.902;25.336;2022-08-05T12:47:36;96987.16;;;34.87;27.09
34297;BME280;20564;42.902;25.336;2022-08-05T12:50:16;96991.63;;;34.96;28.28
34297;BME280;20564;42.902;25.336;2022-08-05T12:52:57;96992.38;;;34.37;29.21
34297;BME280;20564;42.902;25.336;2022-08-05T12:55:27;96986.72;;;34.14;29.69
34297;BME280;20564;42.902;25.336;2022-08-05T12:58:00;96993.22;;;33.80;29.93
34297;BME280;20564;42.902;25.336;2022-08-05T13:00:47;96994.75;;;33.44;30.05
34297;BME280;20564;42.902;25.336;2022-08-05T13:03:37;97001.56;;;32.98;31.47
34297;BME280;20564;42.902;25.336;2022-08-05T13:06:14;96995.53;;;32.72;31.17
34297;BME280;20564;42.902;25.336;2022-08-05T13:08:43;96987.31;;;32.77;31.99
34297;BME280;20564;42.902;25.336;2022-08-05T13:11:22;96977.38;;;33.16;31.71
34297;BME280;20564;42.902;25.336;2022-08-05T13:14:21;96988.69;;;33.52;31.19
34297;BME280;20564;42.902;25.336;2022-08-05T13:17:09;96983.84;;;33.44;31.97
34297;BME280;20564;42.902;25.336;2022-08-05T13:19:37;96982.13;;;33.53;31.85
34297;BME280;20564;42.902;25.336;2022-08-05T13:22:20;96976.72;;;33.48;30.17
34297;BME280;20564;42.902;25.336;2022-08-05T13:24:55;96966.63;;;33.67;29.83
34297;BME280;20564;42.902;25.336;2022-08-05T13:27:38;96962.88;;;33.82;29.16
34297;BME280;20564;42.902;25.336;2022-08-05T13:30:09;96952.91;;;34.10;28.64
34297;BME280;20564;42.902;25.336;2022-08-05T13:32:57;96958.72;;;34.22;29.08
34297;BME280;20564;42.902;25.336;2022-08-05T13:35:27;96963.41;;;34.54;29.26
34297;BME280;20564;42.902;25.336;2022-08-05T13:38:13;96953.28;;;34.55;27.91
34297;BME280;20564;42.902;25.336;2022-08-05T13:40:57;96947.25;;;34.72;28.71
34297;BME280;20564;42.902;25.336;2022-08-05T13:43:25;96956.16;;;34.77;28.54
34297;BME280;20564;42.902;25.336;2022-08-05T13:46:12;96954.44;;;34.68;28.83
34297;BME280;20564;42.902;25.336;2022-08-05T13:48:40;96944.53;;;34.86;28.43
34297;BME280;20564;42.902;25.336;2022-08-05T13:51:30;96946.88;;;35.20;28.44
34297;BME280;20564;42.902;25.336;2022-08-05T13:54:06;96956.88;;;35.38;28.10
34297;BME280;20564;42.902;25.336;2022-08-05T13:56:39;96958.81;;;35.10;28.29
34297;BME280;20564;42.902;25.336;2022-08-05T13:59:21;96959.88;;;34.54;27.65
34297;BME280;20564;42.902;25.336;2022-08-05T14:01:52;96961.47;;;34.03;29.30
34297;BME280;20564;42.902;25.336;2022-08-05T14:04:33;96955.13;;;33.70;28.88
34297;BME280;20564;42.902;25.336;2022-08-05T14:07:25;96962.16;;;33.33;30.19
34297;BME280;20564;42.902;25.336;2022-08-05T14:10:14;96954.63;;;33.25;30.23